Time;durP1;ratioP1;P1;durP2;ratioP2;P2;SDS_P1;SDS_P2;PMS_P1;PMS_P2;Temp;Humidity;BMP_temperature;BMP_pressure;BME280_temperature;BME280_humidity;BME280_pressure;Samples;Min_cycle;Max_cycle;Signal;HPM_P1;HPM_P2
2021/12/03 05:07:15;;;;;;;1.00;1.00;;;-0.30;99.90;;;;;;4919205;29;20228;-67
2021/12/03 05:09:42;;;;;;;0.90;0.90;;;-0.30;99.90;;;;;;4918671;29;20190;-67
2021/12/03 05:12:10;;;;;;;1.00;1.00;;;-0.30;99.90;;;;;;4918894;29;20206;-67
2021/12/03 05:14:39;;;;;;;0.85;0.85;;;-0.30;99.90;;;;;;4918709;29;20221;-67
2021/12/03 05:17:06;;;;;;;0.90;0.90;;;-0.30;99.90;;;;;;4918976;29;20291;-67
2021/12/03 05:19:33;;;;;;;0.88;0.88;;;-0.30;99.90;;;;;;4918632;29;20206;-67
2021/12/03 05:22:01;;;;;;;0.93;0.93;;;-0.30;99.90;;;;;;4918232;29;20316;-66
2021/12/03 05:24:28;;;;;;;1.17;1.17;;;-0.30;99.90;;;;;;4918552;29;20225;-66
2021/12/03 05:26:56;;;;;;;1.20;1.20;;;-0.40;99.90;;;;;;4918448;29;20292;-66
2021/12/03 05:29:23;;;;;;;1.00;1.00;;;-0.40;99.90;;;;;;4918164;29;20216;-67
2021/12/03 05:31:50;;;;;;;0.93;0.88;;;-0.40;99.90;;;;;;4918293;29;20211;-67
2021/12/03 05:34:17;;;;;;;0.82;0.82;;;-0.40;99.90;;;;;;4918384;29;20231;-67
2021/12/03 05:36:46;;;;;;;1.10;1.10;;;-0.50;99.90;;;;;;4918481;29;20201;-67
2021/12/03 05:39:14;;;;;;;1.00;1.00;;;-0.50;99.90;;;;;;4918415;29;20209;-67
2021/12/03 05:41:42;;;;;;;1.10;1.10;;;-0.50;99.90;;;;;;4918376;29;20225;-67
2021/12/03 05:44:09;;;;;;;1.10;1.10;;;-0.60;99.90;;;;;;4918036;29;20229;-67
2021/12/03 05:46:36;;;;;;;1.00;1.00;;;-0.60;99.90;;;;;;4918292;29;20202;-67
2021/12/03 05:49:03;;;;;;;1.20;1.20;;;-0.60;99.90;;;;;;4918296;29;20240;-67
2021/12/03 05:51:30;;;;;;;0.90;0.90;;;-0.70;99.90;;;;;;4918222;29;20213;-67
2021/12/03 05:53:57;;;;;;;1.10;1.10;;;-0.70;99.90;;;;;;4918052;29;20225;-66
2021/12/03 05:56:25;;;;;;;1.10;1.10;;;-0.70;99.90;;;;;;4918197;29;20708;-66
2021/12/03 05:58:52;;;;;;;1.15;1.15;;;-0.70;99.90;;;;;;4917798;29;20205;-66
2021/12/03 06:01:19;;;;;;;1.10;1.10;;;-0.70;99.90;;;;;;4918141;29;20217;-66
2021/12/03 06:03:47;;;;;;;0.82;0.82;;;-0.70;99.90;;;;;;4918591;29;20316;-66
2021/12/03 06:06:15;;;;;;;1.02;1.02;;;-0.70;99.90;;;;;;4917789;29;20236;-66
2021/12/03 06:08:42;;;;;;;0.90;0.90;;;-0.60;99.90;;;;;;4917612;29;20194;-67
2021/12/03 06:11:09;;;;;;;0.90;0.90;;;-0.80;99.90;;;;;;4918073;29;20201;-67
2021/12/03 06:13:39;;;;;;;1.10;1.10;;;-0.80;99.90;;;;;;4917721;29;20197;-67
2021/12/03 06:16:07;;;;;;;0.90;0.90;;;-0.80;99.90;;;;;;4917839;29;20201;-67
2021/12/03 06:18:34;;;;;;;0.88;0.88;;;-0.80;99.90;;;;;;4917463;29;20235;-67
2021/12/03 06:21:02;;;;;;;1.23;1.10;;;-0.90;99.90;;;;;;4917666;29;20209;-67
2021/12/03 06:23:29;;;;;;;1.08;1.08;;;-0.80;99.90;;;;;;4917241;29;20712;-66
2021/12/03 06:25:56;;;;;;;1.08;1.08;;;-0.80;99.90;;;;;;4917617;29;20206;-67
2021/12/03 06:28:23;;;;;;;0.80;0.80;;;-0.80;99.90;;;;;;4917571;29;20212;-68
2021/12/03 06:30:51;;;;;;;1.00;1.00;;;-0.80;99.90;;;;;;4917595;29;20295;-68
2021/12/03 06:33:19;;;;;;;1.13;1.13;;;-0.90;99.90;;;;;;4917506;29;20208;-68
2021/12/03 06:35:46;;;;;;;0.93;0.93;;;-0.90;99.90;;;;;;4917224;29;20692;-68
2021/12/03 06:38:13;;;;;;;0.93;0.93;;;-0.90;99.90;;;;;;4917549;29;20211;-68
2021/12/03 06:40:40;;;;;;;1.17;1.10;;;-0.90;99.90;;;;;;4917240;29;20244;-68
2021/12/03 06:43:07;;;;;;;1.10;1.10;;;-0.90;99.90;;;;;;4917368;29;20239;-68
2021/12/03 06:45:34;;;;;;;1.00;1.00;;;-0.90;99.90;;;;;;4917360;29;20240;-67
2021/12/03 06:48:03;;;;;;;1.00;1.00;;;-0.90;99.90;;;;;;4917309;29;20223;-68
2021/12/03 06:50:31;;;;;;;1.17;1.17;;;-0.90;99.90;;;;;;4917284;29;20237;-68
2021/12/03 06:53:01;;;;;;;1.13;1.13;;;-0.90;99.90;;;;;;4917292;29;20294;-68
2021/12/03 06:55:29;;;;;;;1.17;1.17;;;-1.00;99.90;;;;;;4917151;29;20221;-68
2021/12/03 06:57:56;;;;;;;1.00;1.00;;;-1.00;99.90;;;;;;4917346;29;20209;-68
2021/12/03 07:00:23;;;;;;;1.30;1.20;;;-1.00;99.90;;;;;;4916860;29;20209;-68
2021/12/03 07:02:50;;;;;;;1.10;1.10;;;-1.00;99.90;;;;;;4916455;29;20228;-68
2021/12/03 07:05:18;;;;;;;1.00;1.00;;;-1.00;99.90;;;;;;4916808;29;20235;-68
2021/12/03 09:32:52;;;;;;;1.35;1.35;;;1.80;99.90;;;;;;5433735;23;20249;-70
2021/12/03 09:35:19;;;;;;;1.67;1.67;;;1.80;99.90;;;;;;4918945;29;20272;-70
2021/12/03 09:37:46;;;;;;;1.40;1.40;;;1.70;99.90;;;;;;4918525;29;20205;-70
2021/12/03 09:40:20;;;;;;;1.55;1.55;;;1.70;99.90;;;;;;4918334;29;20300;-70
2021/12/03 09:42:47;;;;;;;1.63;1.63;;;1.70;99.90;;;;;;4918180;29;20230;-69
2021/12/03 09:45:15;;;;;;;1.80;1.70;;;1.70;99.90;;;;;;4918679;29;20308;-71
2021/12/03 09:47:42;;;;;;;1.38;1.38;;;1.70;99.90;;;;;;4918630;29;20296;-71
2021/12/03 09:50:13;;;;;;;2.10;2.00;;;1.70;99.90;;;;;;4940704;23;20232;-66
2021/12/03 09:52:46;;;;;;;1.27;1.27;;;1.80;99.90;;;;;;4918290;29;20547;-67
2021/12/03 09:55:13;;;;;;;1.50;1.50;;;1.80;99.90;;;;;;4918344;29;20633;-66
2021/12/03 09:57:44;;;;;;;1.73;1.65;;;1.90;99.90;;;;;;4918446;29;20296;-67
2021/12/03 10:00:20;;;;;;;1.67;1.50;;;1.90;99.90;;;;;;4918561;29;20263;-67
2021/12/03 10:03:12;;;;;;;1.20;1.20;;;2.00;99.90;;;;;;4917997;29;20209;-67
2021/12/03 10:19:59;;;;;;;1.30;1.30;;;1.70;99.90;;;;;;4917206;29;20304;-67
2021/12/03 10:22:51;;;;;;;1.63;1.55;;;1.60;99.90;;;;;;4917875;29;20209;-66
2021/12/03 10:25:51;;;;;;;1.40;1.30;;;1.50;99.90;;;;;;4917869;29;20190;-66
2021/12/03 10:36:59;;;;;;;1.60;1.60;;;1.40;99.90;;;;;;4900844;29;20193;-65
2021/12/03 10:42:23;;;;;;;1.73;1.73;;;1.50;99.90;;;;;;4915411;29;20201;-66
2021/12/03 10:45:07;;;;;;;1.90;1.80;;;1.60;99.90;;;;;;4917730;29;20203;-67
2021/12/03 10:47:46;;;;;;;2.05;1.95;;;1.50;99.90;;;;;;4917597;29;20193;-67
2021/12/03 10:50:27;;;;;;;3.45;3.25;;;1.60;99.90;;;;;;4917458;29;20240;-65
2021/12/03 10:53:08;;;;;;;2.85;2.67;;;1.60;99.90;;;;;;4917525;29;20189;-66
2021/12/03 10:56:17;;;;;;;2.90;2.60;;;1.60;99.90;;;;;;4917446;29;20201;-66
2021/12/03 11:27:39;;;;;;;3.92;3.33;;;1.60;99.90;;;;;;4917125;29;20220;-69
2021/12/03 11:30:23;;;;;;;3.03;2.60;;;1.50;99.90;;;;;;4916664;29;20571;-68
2021/12/03 13:14:31;;;;;;;1.00;1.00;;;2.20;99.90;;;;;;4879281;29;20198;-71
2021/12/03 13:25:59;;;;;;;1.30;1.30;;;1.90;99.90;;;;;;4919025;29;20185;-70
2021/12/03 13:57:27;;;;;;;1.15;1.15;;;1.60;99.90;;;;;;4918783;29;20254;-70
2021/12/03 14:03:21;;;;;;;1.20;1.20;;;1.60;99.90;;;;;;4917988;29;20585;-71
2021/12/03 14:36:38;;;;;;;1.30;1.30;;;1.40;99.90;;;;;;4918008;29;20570;-70
2021/12/03 14:45:07;;;;;;;1.40;1.40;;;1.40;99.90;;;;;;4917539;29;20188;-71
2021/12/03 14:53:32;;;;;;;1.30;1.30;;;1.10;99.90;;;;;;4917709;29;20182;-72
2021/12/03 14:56:02;;;;;;;1.10;1.10;;;1.10;99.90;;;;;;4917246;29;20193;-72
2021/12/03 14:58:33;;;;;;;1.50;1.50;;;1.10;99.90;;;;;;4917513;29;20212;-72
2021/12/03 15:01:07;;;;;;;1.35;1.35;;;1.00;99.90;;;;;;4917384;29;20260;-72
2021/12/03 15:03:46;;;;;;;1.65;1.55;;;0.90;99.90;;;;;;4917348;29;20629;-72
2021/12/03 15:06:27;;;;;;;1.63;1.60;;;0.80;99.90;;;;;;4917683;29;20195;-72
2021/12/03 15:08:59;;;;;;;1.77;1.70;;;0.80;99.90;;;;;;4917488;29;20281;-72
2021/12/03 15:11:56;;;;;;;1.60;1.60;;;0.70;99.90;;;;;;4917286;29;20229;-73
2021/12/03 15:14:53;;;;;;;6.22;2.42;;;0.70;99.90;;;;;;4917434;29;20289;-72
2021/12/03 15:23:16;;;;;;;2.22;2.13;;;0.60;99.90;;;;;;4916961;29;20214;-72
2021/12/03 15:25:56;;;;;;;2.05;1.95;;;0.50;99.90;;;;;;4919779;29;20197;-72
2021/12/03 15:28:50;;;;;;;2.40;2.10;;;0.50;99.90;;;;;;4921000;29;20216;-72
2021/12/03 15:34:03;;;;;;;2.20;2.10;;;0.50;99.90;;;;;;4912528;29;20189;-72
2021/12/03 15:36:44;;;;;;;1.90;1.80;;;0.40;99.90;;;;;;4920744;29;20669;-72
2021/12/03 15:58:47;;;;;;;1.52;1.52;;;0.20;99.90;;;;;;5091044;28;20233;-70
2021/12/03 16:04:00;;;;;;;1.77;1.67;;;0.20;99.90;;;;;;5057063;28;20273;-70
2021/12/03 16:06:34;;;;;;;1.40;1.30;;;0.20;99.90;;;;;;5091712;28;20209;-70
2021/12/03 16:09:10;;;;;;;1.77;1.70;;;0.10;99.90;;;;;;5090956;28;20608;-70
2021/12/03 16:11:43;;;;;;;1.60;1.60;;;0.10;99.90;;;;;;5090750;28;20184;-70
2021/12/03 16:22:44;;;;;;;2.25;2.05;;;0.00;99.90;;;;;;5090592;28;20179;-70
2021/12/03 16:47:12;;;;;;;2.03;1.98;;;0.20;99.90;;;;;;5089359;28;20226;-69
2021/12/03 16:50:06;;;;;;;2.17;2.05;;;0.20;99.90;;;;;;5089999;28;20223;-72
2021/12/03 16:52:34;;;;;;;2.33;2.13;;;0.20;99.90;;;;;;5081498;28;20242;-71
2021/12/03 16:55:03;;;;;;;2.15;2.05;;;0.20;99.90;;;;;;5076598;28;20231;-71
2021/12/03 16:57:31;;;;;;;2.47;2.28;;;0.20;99.90;;;;;;5076141;28;20206;-71
2021/12/03 17:00:01;;;;;;;2.42;2.33;;;0.20;99.90;;;;;;5076397;28;20220;-71
2021/12/03 17:02:35;;;;;;;2.03;1.92;;;0.20;99.90;;;;;;5076287;28;20210;-72
2021/12/03 17:11:00;;;;;;;2.60;2.50;;;0.30;99.90;;;;;;5076047;28;20674;-72
2021/12/03 17:13:53;;;;;;;2.72;2.63;;;0.30;99.90;;;;;;5076079;28;20254;-73
2021/12/03 17:16:42;;;;;;;2.88;2.78;;;0.30;99.90;;;;;;5076231;28;20181;-76
2021/12/03 17:30:34;;;;;;;3.00;2.90;;;0.20;99.90;;;;;;5073514;28;20231;-71
2021/12/03 17:47:19;;;;;;;3.65;3.35;;;0.00;99.90;;;;;;5075766;28;20175;-70
2021/12/03 17:49:49;;;;;;;3.88;3.47;;;0.00;99.90;;;;;;5075791;28;20280;-70
2021/12/03 17:57:55;;;;;;;4.45;3.45;;;0.10;99.90;;;;;;5064168;28;20188;-72
2021/12/03 18:00:27;;;;;;;3.65;3.30;;;0.10;99.90;;;;;;5074827;28;20590;-73
2021/12/03 18:03:02;;;;;;;3.50;3.30;;;0.10;99.90;;;;;;5074804;28;20192;-72
2021/12/03 18:08:21;;;;;;;3.38;3.13;;;0.10;99.90;;;;;;5057784;28;20188;-72
2021/12/03 18:10:57;;;;;;;3.25;3.05;;;0.00;99.90;;;;;;5074950;28;20216;-71
2021/12/03 18:49:27;;;;;;;2.70;2.50;;;0.10;99.90;;;;;;5074304;28;20179;-72
2021/12/03 18:52:07;;;;;;;3.28;3.00;;;0.10;99.90;;;;;;5074060;28;20184;-72
2021/12/03 18:54:42;;;;;;;5.43;2.90;;;0.10;99.90;;;;;;5074137;28;20631;-72
2021/12/03 18:57:13;;;;;;;3.13;2.92;;;0.10;99.90;;;;;;5074182;28;20187;-72
2021/12/03 18:59:51;;;;;;;3.00;2.90;;;0.00;99.90;;;;;;5073548;28;20610;-72
2021/12/03 19:02:19;;;;;;;2.90;2.80;;;0.00;99.90;;;;;;5073539;28;20216;-73
2021/12/03 19:04:51;;;;;;;3.20;3.00;;;0.00;99.90;;;;;;5073842;28;20227;-73
2021/12/03 19:07:21;;;;;;;2.90;2.70;;;0.00;99.90;;;;;;5074129;28;20199;-73
2021/12/03 19:09:51;;;;;;;3.30;3.10;;;0.00;99.90;;;;;;5073897;28;20224;-73
2021/12/03 19:12:22;;;;;;;3.25;2.42;;;0.00;99.90;;;;;;5073467;28;20590;-73
2021/12/03 19:14:52;;;;;;;2.78;2.67;;;0.00;99.90;;;;;;5073661;28;20188;-73
2021/12/03 19:17:19;;;;;;;2.85;2.67;;;-0.10;99.90;;;;;;5073686;28;20211;-73
2021/12/03 19:19:47;;;;;;;3.97;2.80;;;-0.10;99.90;;;;;;5073251;28;20231;-72
2021/12/03 19:22:15;;;;;;;2.83;2.72;;;-0.10;99.90;;;;;;5073448;28;20231;-73
2021/12/03 19:24:42;;;;;;;3.00;2.80;;;-0.10;99.90;;;;;;5062382;22;20711;-72
2021/12/03 19:27:10;;;;;;;2.85;2.70;;;0.00;99.90;;;;;;5033697;28;20312;-71
2021/12/03 19:29:42;;;;;;;2.38;2.28;;;0.00;99.90;;;;;;5033411;28;20671;-71
2021/12/03 19:32:09;;;;;;;4.03;3.22;;;0.00;99.90;;;;;;5033685;28;20192;-69
2021/12/03 19:34:36;;;;;;;3.83;3.42;;;-0.10;99.90;;;;;;5033038;28;20639;-70
2021/12/03 19:37:04;;;;;;;4.13;3.47;;;-0.10;99.90;;;;;;5033931;28;20291;-70
2021/12/03 19:39:31;;;;;;;4.35;3.95;;;-0.10;99.90;;;;;;5033673;28;20198;-70
2021/12/03 19:42:03;;;;;;;3.35;2.95;;;-0.20;99.90;;;;;;5033844;28;20213;-68
2021/12/03 19:44:37;;;;;;;3.00;2.80;;;-0.20;99.90;;;;;;5034481;28;20283;-69
2021/12/03 19:47:07;;;;;;;2.60;2.50;;;-0.10;99.90;;;;;;5033358;28;20189;-68
2021/12/03 19:49:42;;;;;;;2.97;2.78;;;0.00;99.90;;;;;;5033044;28;20543;-68
2021/12/03 19:52:12;;;;;;;3.00;2.80;;;0.00;99.90;;;;;;5033317;28;20185;-69
2021/12/03 19:54:39;;;;;;;2.80;2.70;;;0.00;99.90;;;;;;5033593;28;20217;-69
2021/12/03 19:57:06;;;;;;;3.28;3.00;;;0.00;99.90;;;;;;5033397;28;20288;-68
2021/12/03 19:59:33;;;;;;;2.97;2.80;;;0.00;99.90;;;;;;5033409;28;20288;-69
2021/12/03 20:02:00;;;;;;;3.33;3.13;;;0.00;99.90;;;;;;5033051;28;20706;-69
2021/12/03 20:04:28;;;;;;;3.45;3.15;;;0.00;99.90;;;;;;5032866;28;20645;-69
2021/12/03 20:06:55;;;;;;;3.40;3.08;;;0.00;99.90;;;;;;5033175;28;20289;-68
2021/12/03 20:09:25;;;;;;;3.35;3.05;;;0.00;99.90;;;;;;5033433;28;20204;-69
2021/12/03 20:11:54;;;;;;;2.55;2.45;;;0.00;99.90;;;;;;5034521;28;20236;-69
2021/12/03 20:14:22;;;;;;;3.83;3.08;;;0.00;99.90;;;;;;5033683;28;20248;-69
2021/12/03 20:16:55;;;;;;;2.78;2.58;;;0.00;99.90;;;;;;5033119;28;20209;-69
2021/12/03 20:19:29;;;;;;;3.80;2.67;;;0.10;99.90;;;;;;5033003;28;20188;-69
2021/12/03 20:22:00;;;;;;;4.10;3.15;;;0.10;99.90;;;;;;5032743;28;20300;-68
2021/12/03 20:24:33;;;;;;;3.20;3.00;;;0.10;99.90;;;;;;5032713;28;20245;-68
2021/12/03 20:27:01;;;;;;;3.28;3.08;;;0.10;99.90;;;;;;5033729;28;20327;-68
2021/12/03 20:29:38;;;;;;;3.38;3.17;;;0.10;99.90;;;;;;5036728;28;20209;-67
2021/12/03 20:32:19;;;;;;;3.17;2.97;;;0.10;99.90;;;;;;5036385;28;20612;-68
2021/12/03 20:34:57;;;;;;;3.38;3.08;;;0.10;99.90;;;;;;5036689;28;20221;-69
2021/12/03 20:37:29;;;;;;;3.10;2.90;;;0.10;99.90;;;;;;5036725;28;20551;-68
2021/12/03 20:39:57;;;;;;;2.80;2.60;;;0.10;99.90;;;;;;5037007;28;20193;-68
2021/12/03 20:42:27;;;;;;;2.80;2.70;;;0.20;99.90;;;;;;5036413;28;20221;-68
2021/12/03 20:47:56;;;;;;;3.25;3.05;;;0.20;99.90;;;;;;5031407;28;20667;-68
2021/12/03 20:50:42;;;;;;;2.97;2.78;;;0.20;99.90;;;;;;5036197;28;20186;-69
2021/12/03 20:53:21;;;;;;;3.45;3.15;;;0.10;99.90;;;;;;5036236;28;20225;-69
2021/12/03 21:09:52;;;;;;;3.63;3.33;;;0.20;99.90;;;;;;5036973;28;20249;-69
2021/12/03 21:12:22;;;;;;;3.22;3.00;;;0.20;99.90;;;;;;5037144;28;20194;-68
2021/12/03 21:14:57;;;;;;;3.60;3.30;;;0.20;99.90;;;;;;5036541;28;20275;-70
2021/12/03 21:17:36;;;;;;;3.65;3.45;;;0.20;99.90;;;;;;5036573;28;20184;-71
2021/12/03 21:20:10;;;;;;;2.97;2.78;;;0.30;99.90;;;;;;5036088;28;20224;-71
2021/12/03 21:22:40;;;;;;;3.05;2.67;;;0.30;99.90;;;;;;5035977;28;20259;-70
2021/12/03 21:25:13;;;;;;;3.33;3.03;;;0.30;99.90;;;;;;5036181;28;20557;-73
2021/12/03 21:27:42;;;;;;;3.40;3.20;;;0.40;99.90;;;;;;5035884;28;20224;-71
2021/12/03 21:30:23;;;;;;;2.53;2.28;;;0.40;99.90;;;;;;5035921;28;20202;-72
2021/12/03 21:32:58;;;;;;;3.10;2.90;;;0.40;99.90;;;;;;5035256;28;20629;-71
2021/12/03 21:43:54;;;;;;;2.50;2.30;;;0.40;99.90;;;;;;5013985;28;20220;-71
2021/12/03 21:46:25;;;;;;;1.85;1.77;;;0.50;99.90;;;;;;5013814;28;20293;-69
2021/12/03 21:48:53;;;;;;;2.22;2.05;;;0.50;99.90;;;;;;5023679;28;20614;-70
2021/12/03 21:51:21;;;;;;;1.80;1.70;;;0.50;99.90;;;;;;5035532;28;20280;-71
2021/12/03 21:53:50;;;;;;;1.95;1.85;;;0.50;99.90;;;;;;5035234;28;20225;-70
2021/12/03 21:56:21;;;;;;;1.92;1.85;;;0.50;99.90;;;;;;5035556;28;20198;-72
2021/12/03 21:58:49;;;;;;;2.40;2.25;;;0.50;99.90;;;;;;5035373;28;20189;-71
2021/12/03 22:01:16;;;;;;;2.17;2.08;;;0.40;99.90;;;;;;5035670;28;20672;-70
2021/12/03 22:03:44;;;;;;;2.00;1.90;;;0.40;99.90;;;;;;5034864;28;20232;-71
2021/12/03 22:06:11;;;;;;;1.85;1.75;;;0.50;99.90;;;;;;5035111;28;20284;-71
2021/12/03 22:08:39;;;;;;;1.50;1.50;;;0.40;99.90;;;;;;5035489;28;20201;-71
2021/12/03 22:11:07;;;;;;;2.03;1.92;;;0.50;99.90;;;;;;5034810;28;20205;-70
2021/12/03 22:13:36;;;;;;;2.10;2.00;;;0.50;99.90;;;;;;5034740;28;20217;-71
2021/12/03 22:16:04;;;;;;;2.22;2.13;;;0.50;99.90;;;;;;5035367;28;20229;-70
2021/12/03 22:18:31;;;;;;;2.00;1.90;;;0.40;99.90;;;;;;5035486;28;20237;-71
2021/12/03 22:21:02;;;;;;;3.10;2.92;;;0.40;99.90;;;;;;5037749;28;20206;-70
2021/12/03 22:23:30;;;;;;;3.28;3.08;;;0.40;99.90;;;;;;5037536;28;20225;-71
2021/12/03 22:25:57;;;;;;;3.38;3.13;;;0.40;99.90;;;;;;5038004;28;20205;-70
2021/12/03 22:28:26;;;;;;;4.05;2.83;;;0.30;99.90;;;;;;5037053;28;20250;-70
2021/12/03 22:30:55;;;;;;;3.03;2.80;;;0.30;99.90;;;;;;5036711;28;20205;-70
2021/12/03 22:33:25;;;;;;;3.38;3.10;;;0.30;99.90;;;;;;5036791;28;20268;-69
2021/12/03 22:35:52;;;;;;;3.13;2.92;;;0.30;99.90;;;;;;5037378;28;20205;-69
2021/12/03 22:38:20;;;;;;;2.75;2.65;;;0.30;99.90;;;;;;5036630;28;20205;-71
2021/12/03 22:40:48;;;;;;;3.58;3.30;;;0.30;99.90;;;;;;5034673;28;20209;-70
2021/12/03 22:43:16;;;;;;;3.17;2.50;;;0.30;99.90;;;;;;5034424;28;20808;-72
2021/12/03 22:45:52;;;;;;;2.58;2.47;;;0.30;99.90;;;;;;5034536;28;20201;-70
2021/12/03 22:48:35;;;;;;;2.55;2.35;;;0.30;99.90;;;;;;5034458;28;20194;-71
2021/12/03 22:51:19;;;;;;;2.63;2.42;;;0.40;99.90;;;;;;5033721;28;20255;-70
2021/12/03 22:53:47;;;;;;;2.50;2.40;;;0.40;99.90;;;;;;5033967;28;20317;-70
2021/12/03 22:56:16;;;;;;;3.45;2.53;;;0.50;99.90;;;;;;5033933;28;20541;-69
2021/12/03 22:58:43;;;;;;;2.60;2.42;;;0.50;99.90;;;;;;5034172;28;20206;-70
2021/12/03 23:01:17;;;;;;;2.35;2.25;;;0.50;99.90;;;;;;5033788;28;20201;-69
2021/12/03 23:03:46;;;;;;;2.15;2.05;;;0.50;99.90;;;;;;5033535;28;20681;-70
2021/12/03 23:06:14;;;;;;;2.25;2.15;;;0.50;99.90;;;;;;5033963;28;20204;-70
2021/12/03 23:08:41;;;;;;;2.78;2.65;;;0.50;99.90;;;;;;5033908;28;20247;-69
2021/12/03 23:11:09;;;;;;;2.97;2.78;;;0.40;99.90;;;;;;5033633;28;20201;-70
2021/12/03 23:13:36;;;;;;;3.40;3.15;;;0.40;99.90;;;;;;5033438;28;20228;-71
2021/12/03 23:16:05;;;;;;;3.20;3.00;;;0.30;99.90;;;;;;5033148;28;20201;-70
2021/12/03 23:18:33;;;;;;;3.20;3.00;;;0.40;99.90;;;;;;5032515;28;20540;-71
2021/12/03 23:21:02;;;;;;;3.50;3.20;;;0.30;99.90;;;;;;5033631;28;20236;-71
2021/12/03 23:23:30;;;;;;;3.38;3.17;;;0.30;99.90;;;;;;5033083;28;20312;-71
2021/12/03 23:25:59;;;;;;;3.88;3.30;;;0.30;99.90;;;;;;5033300;28;20665;-69
2021/12/03 23:28:30;;;;;;;3.00;2.80;;;0.30;99.90;;;;;;5033914;28;20679;-71
2021/12/03 23:30:59;;;;;;;3.65;3.45;;;0.30;99.90;;;;;;5033457;28;20276;-69
2021/12/03 23:33:29;;;;;;;4.75;3.20;;;0.30;99.90;;;;;;5033450;28;20220;-71
2021/12/03 23:35:57;;;;;;;3.40;3.20;;;0.20;99.90;;;;;;5033299;28;20185;-70
2021/12/03 23:38:27;;;;;;;3.92;3.50;;;0.20;99.90;;;;;;5033166;28;20240;-70
2021/12/03 23:40:54;;;;;;;4.85;3.78;;;0.20;99.90;;;;;;5033675;28;20258;-71
2021/12/03 23:43:22;;;;;;;4.38;3.92;;;0.20;99.90;;;;;;5033102;28;20307;-70
2021/12/03 23:45:49;;;;;;;3.90;3.60;;;0.20;99.90;;;;;;5033069;28;20205;-71
2021/12/03 23:48:17;;;;;;;3.20;3.00;;;0.20;99.90;;;;;;5033459;28;20197;-71
2021/12/03 23:50:44;;;;;;;4.63;4.20;;;0.30;99.90;;;;;;5033156;28;20322;-70
2021/12/03 23:53:11;;;;;;;3.63;3.33;;;0.30;99.90;;;;;;5033228;28;20228;-70
2021/12/03 23:55:41;;;;;;;3.78;3.47;;;0.30;99.90;;;;;;5033043;28;20201;-70
2021/12/03 23:58:09;;;;;;;3.33;3.03;;;0.30;99.90;;;;;;5032979;28;20570;-70
